createdAt,value
2023-02-22T00:02:27.231Z,90.38
2023-02-22T00:06:31.202Z,92.09
2023-02-22T00:10:34.435Z,92.18
2023-02-22T00:14:37.813Z,88.84
2023-02-22T00:18:42.629Z,91.81
2023-02-22T00:22:48.128Z,89.91
2023-02-22T00:26:52.711Z,91.38
2023-02-22T00:30:55.686Z,92.38
2023-02-22T00:35:00.542Z,92.12
2023-02-22T00:39:04.105Z,91.03
2023-02-22T00:43:08.009Z,91.23
2023-02-22T00:47:12.668Z,90.31
2023-02-22T00:51:17.888Z,92.06
2023-02-22T00:55:24.868Z,91.86
2023-02-22T00:59:28.349Z,92.34
2023-02-22T01:03:32.839Z,90.48
2023-02-22T01:07:37.391Z,92.54
2023-02-22T01:11:41.846Z,91.59
2023-02-22T01:15:45.550Z,92.11
2023-02-22T01:19:49.092Z,91.57
2023-02-22T01:23:55.405Z,93.11
2023-02-22T01:28:00.139Z,90.81
2023-02-22T01:32:03.774Z,92.94
2023-02-22T01:36:11.678Z,92.37
2023-02-22T01:40:20.611Z,92.37
2023-02-22T01:44:29.622Z,90.81
2023-02-22T01:48:39.277Z,91.08
2023-02-22T01:52:42.912Z,92.69
2023-02-22T01:56:52.797Z,90.86
2023-02-22T02:00:57.740Z,93.40
2023-02-22T02:05:02.157Z,91.77
2023-02-22T02:09:11.332Z,93.50
2023-02-22T02:13:16.960Z,93.78
2023-02-22T02:17:22.296Z,93.19
2023-02-22T02:21:50.225Z,92.57
2023-02-22T02:26:18.759Z,91.43
2023-02-22T02:30:52.670Z,94.03
2023-02-22T02:35:02.843Z,94.23
2023-02-22T02:39:12.059Z,92.45
2023-02-22T02:43:22.584Z,90.13
2023-02-22T02:47:33.814Z,92.49
2023-02-22T02:51:48.913Z,93.24
2023-02-22T02:55:58.346Z,92.82
2023-02-22T03:00:22.956Z,92.88
2023-02-22T03:04:49.166Z,92.20
2023-02-22T03:09:04.539Z,93.43
2023-02-22T03:13:14.847Z,93.37
2023-02-22T03:17:24.283Z,92.50
2023-02-22T03:21:34.328Z,92.18
2023-02-22T03:25:45.744Z,93.50
2023-02-22T03:29:51.110Z,92.56
2023-02-22T03:34:00.176Z,92.62
2023-02-22T03:38:05.273Z,92.27
2023-02-22T03:42:15.133Z,91.87
2023-02-22T03:46:22.603Z,91.76
2023-02-22T03:50:37.697Z,92.88
2023-02-22T03:54:44.525Z,92.38
2023-02-22T03:58:50.851Z,92.01
2023-02-22T04:02:54.697Z,93.13
2023-02-22T04:07:03.726Z,91.04
2023-02-22T04:11:07.660Z,91.47
2023-02-22T04:15:20.177Z,93.62
2023-02-22T04:19:26.369Z,94.68
2023-02-22T04:23:34.741Z,93.44
2023-02-22T04:27:38.313Z,92.39
2023-02-22T04:31:52.955Z,92.06
2023-02-22T04:35:58.017Z,92.39
2023-02-22T04:40:02.132Z,92.27
2023-02-22T04:44:08.905Z,94.12
2023-02-22T04:48:15.957Z,93.14
2023-02-22T04:52:28.221Z,91.75
2023-02-22T04:56:32.042Z,92.58
2023-02-22T05:00:36.166Z,92.51
2023-02-22T05:04:45.565Z,91.04
2023-02-22T05:08:53.455Z,90.79
2023-02-22T05:13:00.108Z,94.56
2023-02-22T05:17:19.273Z,95.44
2023-02-22T05:21:24.922Z,95.48
2023-02-22T05:25:28.917Z,95.40
2023-02-22T05:29:32.873Z,93.94
2023-02-22T05:33:36.929Z,92.23
2023-02-22T05:37:42.562Z,92.48
2023-02-22T05:41:48.923Z,93.02
2023-02-22T05:45:52.624Z,93.45
2023-02-22T05:49:56.508Z,92.05
2023-02-22T05:54:01.664Z,90.98
2023-02-22T05:58:06.765Z,91.57
2023-02-22T06:02:10.440Z,92.58
2023-02-22T06:06:14.502Z,91.70
2023-02-22T06:10:22.450Z,91.71
2023-02-22T06:14:26.322Z,91.86
2023-02-22T06:18:34.345Z,94.57
2023-02-22T06:22:43.357Z,92.80
2023-02-22T06:26:49.437Z,90.71
2023-02-22T06:30:54.904Z,92.77
2023-02-22T06:34:58.997Z,94.40
2023-02-22T06:39:05.952Z,94.15
2023-02-22T06:43:14.109Z,95.35
2023-02-22T06:47:18.368Z,92.83
2023-02-22T06:51:22.427Z,91.67
2023-02-22T06:55:30.693Z,94.96
2023-02-22T06:59:36.449Z,94.57
2023-02-22T07:03:43.720Z,94.54
2023-02-22T07:07:50.581Z,94.08
2023-02-22T07:11:59.916Z,94.79
2023-02-22T07:16:05.473Z,93.11
2023-02-22T07:20:11.728Z,93.66
2023-02-22T07:24:15.636Z,93.24
2023-02-22T07:28:20.301Z,94.77
2023-02-22T07:32:26.960Z,92.33
2023-02-22T07:36:33.685Z,94.96
2023-02-22T07:40:38.228Z,95.81
2023-02-22T07:44:44.600Z,95.08
2023-02-22T07:48:50.061Z,94.33
2023-02-22T07:52:55.286Z,93.47
2023-02-22T07:56:59.178Z,93.20
2023-02-22T08:01:03.863Z,93.41
2023-02-22T08:05:10.724Z,92.27
2023-02-22T08:09:13.774Z,91.32
2023-02-22T08:13:17.418Z,90.63
2023-02-22T08:17:20.644Z,92.78
2023-02-22T08:21:25.191Z,93.52
2023-02-22T08:25:31.353Z,93.53
2023-02-22T08:29:34.604Z,93.43
2023-02-22T08:33:37.622Z,93.28
2023-02-22T08:37:45.456Z,91.88
2023-02-22T08:41:48.514Z,91.38
2023-02-22T08:45:59.782Z,91.74
2023-02-22T08:50:03.215Z,91.37
2023-02-22T08:54:08.063Z,91.79
2023-02-22T08:58:11.114Z,90.85
2023-02-22T09:02:16.902Z,90.35
2023-02-22T09:06:19.970Z,90.21
2023-02-22T09:10:26.167Z,90.31
2023-02-22T09:14:29.611Z,87.94
2023-02-22T09:18:43.497Z,86.65
2023-02-22T09:22:48.470Z,84.40
2023-02-22T09:26:55.240Z,85.27
2023-02-22T09:30:58.290Z,82.92
2023-02-22T09:35:09.856Z,82.02
2023-02-22T09:39:13.127Z,80.92
2023-02-22T09:43:31.241Z,80.26
2023-02-22T09:47:41.172Z,77.80
2023-02-22T09:51:49.494Z,78.76
2023-02-22T09:55:54.156Z,77.47
2023-02-22T10:00:12.959Z,76.25
2023-02-22T10:04:22.111Z,74.63
2023-02-22T10:08:31.366Z,75.68
2023-02-22T10:12:39.505Z,76.37
2023-02-22T10:16:48.275Z,76.78
2023-02-22T10:20:55.790Z,75.91
2023-02-22T10:25:01.861Z,75.30
2023-02-22T10:29:07.695Z,75.96
2023-02-22T10:33:15.728Z,75.52
2023-02-22T10:37:27.393Z,76.74
2023-02-22T10:41:33.442Z,75.94
2023-02-22T10:45:37.260Z,74.20
2023-02-22T10:49:44.668Z,74.72
2023-02-22T10:53:57.370Z,75.53
2023-02-22T10:58:02.376Z,74.16
2023-02-22T11:02:16.229Z,73.31
2023-02-22T11:06:21.854Z,72.66
2023-02-22T11:10:38.658Z,73.32
2023-02-22T11:14:42.706Z,73.41
2023-02-22T11:18:46.072Z,72.31
2023-02-22T11:22:53.496Z,71.37
2023-02-22T11:27:00.900Z,71.67
2023-02-22T11:31:16.311Z,71.84
2023-02-22T11:35:25.026Z,70.86
2023-02-22T11:39:34.391Z,70.65
2023-02-22T11:43:37.797Z,68.73
2023-02-22T11:47:52.671Z,70.09
2023-02-22T11:52:08.019Z,69.38
2023-02-22T11:56:28.410Z,67.84
2023-02-22T12:00:47.336Z,68.85
2023-02-22T12:05:02.523Z,69.04
2023-02-22T12:09:15.741Z,69.05
2023-02-22T12:13:32.631Z,69.60
2023-02-22T12:17:54.289Z,71.70
2023-02-22T12:22:03.466Z,69.34
2023-02-22T12:26:11.848Z,69.18
2023-02-22T12:35:38.458Z,69.35
2023-02-22T12:39:53.720Z,70.03
2023-02-22T12:44:02.416Z,69.70
2023-02-22T12:48:22.644Z,69.35
2023-02-22T12:52:41.326Z,70.87
2023-02-22T12:56:57.070Z,70.78
2023-02-22T13:01:01.019Z,70.70
2023-02-22T13:05:05.632Z,70.40
2023-02-22T13:09:33.498Z,69.66
2023-02-22T13:13:43.092Z,69.50
2023-02-22T13:17:48.386Z,70.41
2023-02-22T13:21:54.596Z,70.88
2023-02-22T13:26:03.760Z,70.67
2023-02-22T13:30:18.290Z,70.21
2023-02-22T13:34:38.608Z,70.51
2023-02-22T13:39:03.779Z,71.52
2023-02-22T13:43:25.434Z,70.69
2023-02-22T13:47:50.924Z,70.53
2023-02-22T13:51:55.790Z,68.98
2023-02-22T13:56:00.573Z,69.38
2023-02-22T14:00:42.701Z,66.96
2023-02-22T14:04:45.997Z,69.70
2023-02-22T14:08:52.181Z,68.39
2023-02-22T14:12:55.681Z,69.01
2023-02-22T14:17:34.191Z,68.61
2023-02-22T14:21:37.840Z,69.91
2023-02-22T14:25:43.788Z,70.38
2023-02-22T14:29:52.016Z,71.23
2023-02-22T14:34:09.530Z,71.71
2023-02-22T14:38:19.594Z,71.42
2023-02-22T14:42:26.141Z,72.44
2023-02-22T14:46:31.664Z,72.15
2023-02-22T14:50:49.233Z,72.55
2023-02-22T14:55:00.495Z,73.67
2023-02-22T14:59:17.307Z,73.03
2023-02-22T15:03:29.359Z,73.43
2023-02-22T15:07:35.836Z,74.20
2023-02-22T15:11:38.708Z,74.19
2023-02-22T15:15:44.678Z,74.83
2023-02-22T15:19:48.686Z,75.63
2023-02-22T15:23:54.762Z,75.72
2023-02-22T15:28:02.577Z,75.67
2023-02-22T15:32:20.218Z,76.01
2023-02-22T15:36:28.360Z,76.17
2023-02-22T15:40:39.123Z,76.15
2023-02-22T15:44:43.978Z,76.18
2023-02-22T15:49:05.622Z,76.73
2023-02-22T15:53:15.668Z,77.31
2023-02-22T15:57:22.946Z,78.36
2023-02-22T16:01:27.240Z,77.18
2023-02-22T16:05:38.399Z,77.06
2023-02-22T16:09:41.214Z,77.10
2023-02-22T16:13:53.332Z,77.33
2023-02-22T16:18:02.429Z,77.94
2023-02-22T16:22:13.649Z,79.10
2023-02-22T16:26:26.713Z,78.54
2023-02-22T16:30:32.937Z,78.67
2023-02-22T16:34:37.068Z,79.39
2023-02-22T16:38:47.394Z,79.17
2023-02-22T16:42:51.554Z,79.80
2023-02-22T16:46:57.775Z,80.00
2023-02-22T16:51:04.087Z,79.45
2023-02-22T16:55:07.925Z,80.35
2023-02-22T16:59:14.244Z,80.65
2023-02-22T17:03:19.648Z,80.35
2023-02-22T17:07:29.867Z,80.87
2023-02-22T17:11:32.917Z,80.30
2023-02-22T17:15:37.461Z,82.17
2023-02-22T17:19:42.159Z,82.63
2023-02-22T17:23:46.025Z,82.94
2023-02-22T17:27:49.654Z,82.76
2023-02-22T17:31:53.764Z,83.27
2023-02-22T17:35:59.787Z,83.79
2023-02-22T17:40:03.124Z,83.44
2023-02-22T17:44:07.375Z,84.03
2023-02-22T17:48:11.136Z,82.32
2023-02-22T17:52:16.043Z,83.80
2023-02-22T17:56:20.356Z,83.41
2023-02-22T18:00:24.426Z,83.46
2023-02-22T18:04:27.695Z,84.80
2023-02-22T18:08:32.639Z,84.66
2023-02-22T18:12:35.472Z,83.81
2023-02-22T18:16:39.496Z,86.53
2023-02-22T18:20:44.472Z,86.29
2023-02-22T18:24:49.032Z,86.85
2023-02-22T18:28:53.869Z,85.72
2023-02-22T18:32:56.917Z,86.39
2023-02-22T18:37:01.047Z,87.88
2023-02-22T18:41:07.444Z,87.67
2023-02-22T18:45:12.045Z,88.71
2023-02-22T18:49:15.435Z,89.76
2023-02-22T18:53:18.589Z,89.79
2023-02-22T18:57:23.248Z,89.89
2023-02-22T19:01:26.754Z,89.71
2023-02-22T19:05:29.952Z,93.40
2023-02-22T19:09:33.316Z,94.17
2023-02-22T19:13:38.868Z,92.10
2023-02-22T19:17:42.973Z,90.62
2023-02-22T19:21:46.663Z,92.82
2023-02-22T19:25:53.116Z,92.36
2023-02-22T19:29:58.900Z,93.54
2023-02-22T19:34:04.684Z,90.87
2023-02-22T19:38:23.839Z,91.07
2023-02-22T19:42:28.604Z,93.74
2023-02-22T19:46:37.999Z,92.50
2023-02-22T19:50:49.314Z,93.16
2023-02-22T19:54:53.891Z,96.23
2023-02-22T19:58:59.604Z,94.40
2023-02-22T20:03:11.212Z,91.68
2023-02-22T20:07:14.703Z,93.14
2023-02-22T20:11:20.940Z,92.17
2023-02-22T20:15:25.032Z,92.78
2023-02-22T20:19:30.813Z,93.20
2023-02-22T20:23:35.199Z,95.32
2023-02-22T20:27:42.031Z,95.19
2023-02-22T20:31:49.979Z,93.00
2023-02-22T20:35:55.545Z,94.06
2023-02-22T20:40:00.423Z,93.48
2023-02-22T20:44:05.653Z,93.62
2023-02-22T20:48:09.548Z,92.68
2023-02-22T20:52:15.330Z,92.17
2023-02-22T20:56:24.795Z,95.60
2023-02-22T21:00:39.092Z,94.44
2023-02-22T21:04:43.068Z,94.06
2023-02-22T21:08:55.369Z,94.17
2023-02-22T21:13:03.702Z,94.76
2023-02-22T21:17:09.959Z,93.88
2023-02-22T21:21:15.551Z,92.85
2023-02-22T21:25:20.372Z,93.32
2023-02-22T21:29:23.612Z,92.70
2023-02-22T21:33:30.176Z,93.43
2023-02-22T21:37:34.966Z,92.79
2023-02-22T21:41:41.420Z,92.42
2023-02-22T21:45:44.592Z,93.88
2023-02-22T21:49:51.202Z,93.77
2023-02-22T21:53:56.464Z,92.73
2023-02-22T21:58:04.318Z,93.15
2023-02-22T22:02:07.812Z,92.66
2023-02-22T22:06:13.764Z,93.90
2023-02-22T22:10:24.701Z,94.00
2023-02-22T22:14:30.003Z,94.92
2023-02-22T22:18:33.417Z,93.58
2023-02-22T22:22:39.437Z,94.17
2023-02-22T22:26:44.111Z,95.80
2023-02-22T22:30:50.393Z,94.69
2023-02-22T22:34:56.638Z,93.53
2023-02-22T22:38:59.894Z,92.81
2023-02-22T22:43:06.261Z,94.46
2023-02-22T22:47:12.747Z,93.67
2023-02-22T22:51:18.834Z,93.18
2023-02-22T22:55:24.492Z,94.51
2023-02-22T22:59:28.253Z,93.97
2023-02-22T23:03:33.936Z,93.16
2023-02-22T23:07:37.489Z,94.11
2023-02-22T23:11:45.135Z,93.34
2023-02-22T23:15:49.031Z,94.19
2023-02-22T23:19:53.629Z,93.31
2023-02-22T23:23:58.578Z,93.50
2023-02-22T23:28:02.271Z,93.68
2023-02-22T23:32:06.136Z,93.55
2023-02-22T23:36:13.076Z,94.81
2023-02-22T23:40:18.911Z,94.06
2023-02-22T23:44:22.307Z,94.15
2023-02-22T23:48:28.175Z,94.71
2023-02-22T23:52:32.856Z,94.42
2023-02-22T23:56:38.135Z,95.96
